createdAt,value
2018-09-03T00:01:39.142Z,6.87
2018-09-03T00:04:06.399Z,5.87
2018-09-03T00:06:33.727Z,5.83
2018-09-03T00:09:01.020Z,5.77
2018-09-03T00:11:28.374Z,5.80
2018-09-03T00:13:55.654Z,5.70
2018-09-03T00:16:23.001Z,5.40
2018-09-03T00:18:50.309Z,5.60
2018-09-03T00:21:17.599Z,4.90
2018-09-03T00:23:44.878Z,5.77
2018-09-03T00:26:12.215Z,5.10
2018-09-03T00:28:39.537Z,5.53
2018-09-03T00:31:12.236Z,5.80
2018-09-03T00:33:44.915Z,5.30
2018-09-03T00:36:17.635Z,5.30
2018-09-03T00:38:50.420Z,5.70
2018-09-03T00:41:23.180Z,4.90
2018-09-03T00:43:55.802Z,6.20
2018-09-03T00:46:28.397Z,5.63
2018-09-03T00:48:55.713Z,5.77
2018-09-03T00:51:22.988Z,6.40
2018-09-03T00:53:50.263Z,5.57
2018-09-03T00:56:17.567Z,5.13
2018-09-03T00:58:44.925Z,5.90
2018-09-03T01:01:12.345Z,6.60
2018-09-03T01:03:39.618Z,6.00
2018-09-03T01:06:06.985Z,6.60
2018-09-03T01:08:34.370Z,6.20
2018-09-03T01:11:01.700Z,6.67
2018-09-03T01:13:29.002Z,5.80
2018-09-03T01:15:56.247Z,6.00
2018-09-03T01:18:23.564Z,7.20
2018-09-03T01:20:50.846Z,6.20
2018-09-03T01:23:18.152Z,6.20
2018-09-03T01:25:45.440Z,6.20
2018-09-03T01:28:12.756Z,6.27
2018-09-03T01:30:40.070Z,6.50
2018-09-03T01:33:07.367Z,6.30
2018-09-03T01:35:34.652Z,6.60
2018-09-03T01:38:01.937Z,6.30
2018-09-03T01:40:29.448Z,6.70
2018-09-03T01:42:56.794Z,5.73
2018-09-03T01:45:24.093Z,5.83
2018-09-03T01:47:51.418Z,6.70
2018-09-03T01:50:18.849Z,6.30
2018-09-03T01:52:46.157Z,7.10
2018-09-03T01:55:13.486Z,6.73
2018-09-03T01:57:40.778Z,6.40
2018-09-03T02:00:08.204Z,6.60
2018-09-03T02:02:35.693Z,7.85
2018-09-03T02:05:03.010Z,7.37
2018-09-03T02:07:30.332Z,7.60
2018-09-03T02:09:57.607Z,7.80
2018-09-03T02:12:24.940Z,7.20
2018-09-03T02:14:52.349Z,8.05
2018-09-03T02:17:19.640Z,7.47
2018-09-03T02:19:46.960Z,7.35
2018-09-03T02:22:14.264Z,6.75
2018-09-03T02:24:41.592Z,6.97
2018-09-03T02:27:08.863Z,7.17
2018-09-03T02:29:36.222Z,6.50
2018-09-03T02:32:03.638Z,5.87
2018-09-03T02:34:30.947Z,6.40
2018-09-03T02:36:58.245Z,6.30
2018-09-03T02:39:25.566Z,7.10
2018-09-03T02:41:52.894Z,5.87
2018-09-03T02:44:20.289Z,7.23
2018-09-03T02:46:48.440Z,6.37
2018-09-03T02:49:15.739Z,6.17
2018-09-03T02:51:43.748Z,6.10
2018-09-03T02:54:11.343Z,6.60
2018-09-03T02:56:38.688Z,6.50
2018-09-03T02:59:06.294Z,6.63
2018-09-03T03:01:33.665Z,6.40
2018-09-03T03:04:01.390Z,7.30
2018-09-03T03:06:29.547Z,6.23
2018-09-03T03:08:57.288Z,6.80
2018-09-03T03:11:24.732Z,6.27
2018-09-03T03:13:52.084Z,6.47
2018-09-03T03:16:19.683Z,7.77
2018-09-03T03:18:47.328Z,6.87
2018-09-03T03:21:15.146Z,6.93
2018-09-03T03:23:42.433Z,7.80
2018-09-03T03:26:10.223Z,7.13
2018-09-03T03:28:37.617Z,8.30
2018-09-03T03:31:04.988Z,7.70
2018-09-03T03:33:32.425Z,7.62
2018-09-03T03:36:00.028Z,7.47
2018-09-03T03:38:27.830Z,8.18
2018-09-03T03:40:55.147Z,8.70
2018-09-03T03:43:22.488Z,7.70
2018-09-03T03:45:49.843Z,8.47
2018-09-03T03:48:17.494Z,8.57
2018-09-03T03:50:44.994Z,7.63
2018-09-03T03:53:12.539Z,8.80
2018-09-03T03:55:40.093Z,8.30
2018-09-03T03:58:07.715Z,8.30
2018-09-03T04:00:35.169Z,9.53
2018-09-03T04:03:03.074Z,8.83
2018-09-03T04:05:30.471Z,8.40
2018-09-03T04:07:58.143Z,9.33
2018-09-03T04:10:25.690Z,9.27
2018-09-03T04:12:54.949Z,9.57
2018-09-03T04:15:23.013Z,8.90
2018-09-03T04:17:50.398Z,8.70
2018-09-03T04:20:17.862Z,8.70
2018-09-03T04:22:45.249Z,8.70
2018-09-03T04:25:12.539Z,9.50
2018-09-03T04:27:39.862Z,10.03
2018-09-03T04:30:07.218Z,10.10
2018-09-03T04:32:34.611Z,10.37
2018-09-03T04:35:02.518Z,9.60
2018-09-03T04:37:29.924Z,10.33
2018-09-03T04:39:57.518Z,9.93
2018-09-03T04:42:25.078Z,9.50
2018-09-03T04:44:52.710Z,10.27
2018-09-03T04:47:20.326Z,10.60
2018-09-03T04:49:47.650Z,11.80
2018-09-03T04:52:14.967Z,10.50
2018-09-03T04:54:42.527Z,11.10
2018-09-03T04:57:09.922Z,10.50
2018-09-03T04:59:37.803Z,11.00
2018-09-03T05:02:06.166Z,10.50
2018-09-03T05:04:33.582Z,10.97
2018-09-03T05:07:00.968Z,11.67
2018-09-03T05:09:28.382Z,11.00
2018-09-03T05:11:55.761Z,10.43
2018-09-03T05:14:23.656Z,10.80
2018-09-03T05:16:51.349Z,11.23
2018-09-03T05:19:18.910Z,10.90
2018-09-03T05:21:46.715Z,11.17
2018-09-03T05:24:14.547Z,11.57
2018-09-03T05:26:41.973Z,11.70
2018-09-03T05:29:09.530Z,11.77
2018-09-03T05:31:37.171Z,10.60
2018-09-03T05:34:04.555Z,11.27
2018-09-03T05:36:31.887Z,11.63
2018-09-03T05:38:59.591Z,12.03
2018-09-03T05:41:26.928Z,11.77
2018-09-03T05:43:54.759Z,11.80
2018-09-03T05:46:22.310Z,11.87
2018-09-03T05:48:49.708Z,13.30
2018-09-03T05:51:17.030Z,12.03
2018-09-03T05:53:44.363Z,11.90
2018-09-03T05:56:11.773Z,12.53
2018-09-03T05:58:39.476Z,12.07
2018-09-03T06:01:07.338Z,12.00
2018-09-03T06:03:34.723Z,12.33
2018-09-03T06:06:02.602Z,11.77
2018-09-03T06:08:30.186Z,11.67
2018-09-03T06:10:57.650Z,12.00
2018-09-03T06:13:25.196Z,11.73
2018-09-03T06:15:52.916Z,11.20
2018-09-03T06:18:20.454Z,11.53
2018-09-03T06:20:48.120Z,11.00
2018-09-03T06:23:15.486Z,11.70
2018-09-03T06:25:42.871Z,11.50
2018-09-03T06:28:10.208Z,12.20
2018-09-03T06:30:37.541Z,11.70
2018-09-03T06:33:04.907Z,11.07
2018-09-03T06:35:33.002Z,11.77
2018-09-03T06:38:00.843Z,12.27
2018-09-03T06:40:28.221Z,11.73
2018-09-03T06:42:55.846Z,12.03
2018-09-03T06:45:23.434Z,11.90
2018-09-03T06:47:51.394Z,11.97
2018-09-03T06:50:19.214Z,11.53
2018-09-03T06:52:47.029Z,11.90
2018-09-03T06:55:14.633Z,11.87
2018-09-03T06:57:41.978Z,11.93
2018-09-03T07:00:09.938Z,11.43
2018-09-03T07:02:37.523Z,13.23
2018-09-03T07:05:05.144Z,11.80
2018-09-03T07:07:32.614Z,12.20
2018-09-03T07:10:00.529Z,12.33
2018-09-03T07:15:12.195Z,11.83
2018-09-03T07:17:39.956Z,11.30
2018-09-03T07:20:07.279Z,10.97
2018-09-03T07:22:34.618Z,11.87
2018-09-03T07:25:01.951Z,12.23
2018-09-03T07:27:29.767Z,11.60
2018-09-03T07:29:57.432Z,11.33
2018-09-03T07:32:24.781Z,12.60
2018-09-03T07:34:52.148Z,11.87
2018-09-03T07:37:19.449Z,12.37
2018-09-03T07:39:47.570Z,12.73
2018-09-03T07:42:14.936Z,13.10
2018-09-03T07:44:42.239Z,12.13
2018-09-03T07:47:09.785Z,13.00
2018-09-03T07:49:37.179Z,13.77
2018-09-03T07:52:04.761Z,12.27
2018-09-03T07:54:32.046Z,13.37
2018-09-03T07:56:59.935Z,13.50
2018-09-03T07:59:27.500Z,12.43
2018-09-03T08:01:55.065Z,13.03
2018-09-03T08:04:23.504Z,13.27
2018-09-03T08:06:50.816Z,13.67
2018-09-03T08:09:18.134Z,13.63
2018-09-03T08:11:45.517Z,14.23
2018-09-03T08:14:13.125Z,14.10
2018-09-03T08:16:41.023Z,15.63
2018-09-03T08:19:08.668Z,14.40
2018-09-03T08:21:36.035Z,13.67
2018-09-03T08:24:03.393Z,15.20
2018-09-03T08:26:30.703Z,16.17
2018-09-03T08:28:58.272Z,15.17
2018-09-03T08:31:25.834Z,15.70
2018-09-03T08:33:53.150Z,16.17
2018-09-03T08:36:20.723Z,15.80
2018-09-03T08:38:48.310Z,15.43
2018-09-03T08:41:15.866Z,14.50
2018-09-03T08:43:44.856Z,15.30
2018-09-03T08:46:12.150Z,15.33
2018-09-03T08:48:39.499Z,18.37
2018-09-03T08:51:06.865Z,18.20
2018-09-03T08:53:34.407Z,17.63
2018-09-03T08:56:01.998Z,18.83
2018-09-03T08:58:29.563Z,18.47
2018-09-03T09:00:56.946Z,19.20
2018-09-03T09:03:29.675Z,18.90
2018-09-03T09:05:57.643Z,16.60
2018-09-03T09:08:24.966Z,17.00
2018-09-03T09:10:52.488Z,18.40
2018-09-03T09:13:20.212Z,19.73
2018-09-03T09:15:47.699Z,18.53
2018-09-03T09:18:15.442Z,19.23
2018-09-03T09:20:43.051Z,17.33
2018-09-03T09:23:10.881Z,20.57
2018-09-03T09:25:38.324Z,17.70
2018-09-03T09:28:05.713Z,18.47
2018-09-03T09:30:33.418Z,20.50
2018-09-03T09:33:01.254Z,18.80
2018-09-03T09:35:28.869Z,20.40
2018-09-03T09:37:56.578Z,19.87
2018-09-03T09:40:24.221Z,18.63
2018-09-03T09:42:51.673Z,19.90
2018-09-03T09:45:19.226Z,18.70
2018-09-03T09:47:46.539Z,19.07
2018-09-03T09:50:13.930Z,20.07
2018-09-03T09:52:41.491Z,19.27
2018-09-03T09:55:08.810Z,18.17
2018-09-03T09:57:36.439Z,18.50
2018-09-03T10:00:03.822Z,18.07
2018-09-03T10:02:31.132Z,18.33
2018-09-03T10:04:58.695Z,19.43
2018-09-03T10:07:26.350Z,18.27
2018-09-03T10:09:53.978Z,17.20
2018-09-03T10:12:36.000Z,19.43
2018-09-03T10:15:03.638Z,19.03
2018-09-03T10:17:31.316Z,18.93
2018-09-03T10:19:59.090Z,18.13
2018-09-03T10:22:26.422Z,18.33
2018-09-03T10:24:54.707Z,17.80
2018-09-03T10:27:22.289Z,18.30
2018-09-03T10:29:49.895Z,17.93
2018-09-03T10:32:17.246Z,16.83
2018-09-03T10:34:44.915Z,18.27
2018-09-03T10:37:12.556Z,19.50
2018-09-03T10:39:40.199Z,18.97
2018-09-03T10:42:07.779Z,19.10
2018-09-03T10:44:35.099Z,19.40
2018-09-03T10:47:02.668Z,19.10
2018-09-03T10:49:30.061Z,18.23
2018-09-03T10:51:57.882Z,18.90
2018-09-03T10:54:25.955Z,17.37
2018-09-03T10:56:53.732Z,19.17
2018-09-03T10:59:21.255Z,19.00
2018-09-03T11:01:48.866Z,19.47
2018-09-03T11:04:16.433Z,18.50
2018-09-03T11:06:44.015Z,18.90
2018-09-03T11:09:11.860Z,18.37
2018-09-03T11:11:40.365Z,18.90
2018-09-03T11:14:08.401Z,18.93
2018-09-03T11:16:35.766Z,19.47
2018-09-03T11:19:03.157Z,19.17
2018-09-03T11:21:30.738Z,19.60
2018-09-03T11:23:58.466Z,19.80
2018-09-03T11:26:25.717Z,20.13
2018-09-03T11:28:53.289Z,21.37
2018-09-03T11:31:20.614Z,19.67
2018-09-03T11:33:47.970Z,19.30
2018-09-03T11:36:15.295Z,19.70
2018-09-03T11:38:42.883Z,20.17
2018-09-03T11:41:10.222Z,20.70
2018-09-03T11:43:37.770Z,20.90
2018-09-03T11:46:05.132Z,20.80
2018-09-03T11:48:33.036Z,19.47
2018-09-03T11:51:00.515Z,20.00
2018-09-03T11:53:28.314Z,20.97
2018-09-03T11:55:55.823Z,19.60
2018-09-03T11:58:23.174Z,20.73
2018-09-03T12:00:50.764Z,21.00
2018-09-03T12:03:18.360Z,20.60
2018-09-03T12:05:45.922Z,19.07
2018-09-03T12:08:13.563Z,21.37
2018-09-03T12:10:41.185Z,20.60
2018-09-03T12:13:08.871Z,22.17
2018-09-03T12:15:40.057Z,22.83
2018-09-03T12:18:07.707Z,21.07
2018-09-03T12:20:35.493Z,20.47
2018-09-03T12:23:02.974Z,18.73
2018-09-03T12:25:30.533Z,18.43
2018-09-03T12:27:58.343Z,19.63
2018-09-03T12:30:25.679Z,18.73
2018-09-03T12:32:54.356Z,21.10
2018-09-03T12:35:21.752Z,21.50
2018-09-03T12:37:49.482Z,20.17
2018-09-03T12:40:16.886Z,20.33
2018-09-03T12:42:44.450Z,19.43
2018-09-03T12:45:11.885Z,19.47
2018-09-03T12:47:39.461Z,19.67
2018-09-03T12:50:06.883Z,19.57
2018-09-03T12:52:34.253Z,18.70
2018-09-03T12:55:01.792Z,18.83
2018-09-03T12:57:29.101Z,19.50
2018-09-03T13:00:05.147Z,19.23
2018-09-03T13:02:24.685Z,19.63
2018-09-03T13:04:52.400Z,18.40
2018-09-03T13:07:19.732Z,18.73
2018-09-03T13:09:47.800Z,20.40
2018-09-03T13:12:15.370Z,18.40
2018-09-03T13:14:42.940Z,17.90
2018-09-03T13:17:10.282Z,16.60
2018-09-03T13:19:37.627Z,16.27
2018-09-03T13:22:05.155Z,16.23
2018-09-03T13:24:32.537Z,16.63
2018-09-03T13:26:59.842Z,16.33
2018-09-03T13:29:27.754Z,18.50
2018-09-03T13:31:55.543Z,16.77
2018-09-03T13:34:23.571Z,17.10
2018-09-03T13:36:50.916Z,17.30
2018-09-03T13:39:18.345Z,16.53
2018-09-03T13:41:45.663Z,18.47
2018-09-03T13:44:12.923Z,16.77
2018-09-03T13:46:40.243Z,16.30
2018-09-03T13:49:07.848Z,16.40
2018-09-03T13:51:35.141Z,17.90
2018-09-03T13:54:02.428Z,16.30
2018-09-03T13:56:30.004Z,18.40
2018-09-03T13:58:57.812Z,16.40
2018-09-03T14:01:25.114Z,17.13
2018-09-03T14:03:52.444Z,16.97
2018-09-03T14:06:20.113Z,16.70
2018-09-03T14:08:47.648Z,16.70
2018-09-03T14:11:15.009Z,17.07
2018-09-03T14:13:44.034Z,17.50
2018-09-03T14:16:11.370Z,17.33
2018-09-03T14:18:39.311Z,17.33
2018-09-03T14:21:07.027Z,17.47
2018-09-03T14:23:35.031Z,17.47
2018-09-03T14:26:02.544Z,17.43
2018-09-03T14:28:29.861Z,15.47
2018-09-03T14:30:57.376Z,16.50
2018-09-03T14:33:24.706Z,16.50
2018-09-03T14:35:52.000Z,16.70
2018-09-03T14:38:19.338Z,17.10
2018-09-03T14:40:46.606Z,15.60
2018-09-03T14:43:14.406Z,17.80
2018-09-03T14:45:41.923Z,16.43
2018-09-03T14:48:09.176Z,16.00
2018-09-03T14:50:36.828Z,16.37
2018-09-03T14:53:04.956Z,15.70
2018-09-03T14:55:32.260Z,16.07
2018-09-03T14:57:59.617Z,15.50
2018-09-03T15:00:26.965Z,15.80
2018-09-03T15:02:54.280Z,15.07
2018-09-03T15:05:21.559Z,16.73
2018-09-03T15:07:49.355Z,15.40
2018-09-03T15:10:16.931Z,17.00
2018-09-03T15:12:45.052Z,15.43
2018-09-03T15:15:12.340Z,14.77
2018-09-03T15:17:39.625Z,15.13
2018-09-03T15:20:06.967Z,15.80
2018-09-03T15:22:34.349Z,15.57
2018-09-03T15:25:01.692Z,14.17
2018-09-03T15:27:29.245Z,16.50
2018-09-03T15:29:56.833Z,15.87
2018-09-03T15:32:24.752Z,15.60
2018-09-03T15:34:53.720Z,16.00
2018-09-03T15:37:23.112Z,15.13
2018-09-03T15:40:00.052Z,15.23
2018-09-03T15:42:28.610Z,16.03
2018-09-03T15:44:58.777Z,15.80
2018-09-03T15:47:26.464Z,15.63
2018-09-03T15:49:55.992Z,14.87
2018-09-03T15:52:24.050Z,16.40
2018-09-03T15:54:52.910Z,16.20
2018-09-03T15:57:23.919Z,15.30
2018-09-03T15:59:54.585Z,15.90
2018-09-03T16:02:24.348Z,16.17
2018-09-03T16:04:53.070Z,16.37
2018-09-03T16:07:22.075Z,17.03
2018-09-03T16:09:50.829Z,16.57
2018-09-03T16:12:20.392Z,16.70
2018-09-03T16:14:50.449Z,15.53
2018-09-03T16:17:20.709Z,16.87
2018-09-03T16:19:50.015Z,15.73
2018-09-03T16:22:20.456Z,16.83
2018-09-03T16:24:50.265Z,17.60
2018-09-03T16:27:23.056Z,16.70
2018-09-03T16:29:51.437Z,17.00
2018-09-03T16:32:19.372Z,16.77
2018-09-03T16:34:47.264Z,16.47
2018-09-03T16:37:15.784Z,17.67
2018-09-03T16:39:45.766Z,17.40
2018-09-03T16:42:13.612Z,16.90
2018-09-03T16:44:43.211Z,17.53
2018-09-03T16:47:13.468Z,16.77
2018-09-03T16:49:44.862Z,16.40
2018-09-03T16:52:16.651Z,16.37
2018-09-03T16:54:48.296Z,16.80
2018-09-03T16:57:17.172Z,16.63
2018-09-03T16:59:46.736Z,16.33
2018-09-03T17:02:15.857Z,17.70
2018-09-03T17:04:43.680Z,16.83
2018-09-03T17:07:12.670Z,15.70
2018-09-03T17:09:42.185Z,16.30
2018-09-03T17:12:12.799Z,15.50
2018-09-03T17:14:42.980Z,15.87
2018-09-03T17:17:13.014Z,15.80
2018-09-03T17:19:41.650Z,16.50
2018-09-03T17:22:09.892Z,16.40
2018-09-03T17:24:38.544Z,16.20
2018-09-03T17:27:08.496Z,16.33
2018-09-03T17:29:37.743Z,15.23
2018-09-03T17:32:05.526Z,16.47
2018-09-03T17:34:34.148Z,15.37
2018-09-03T17:37:03.753Z,15.27
2018-09-03T17:39:31.340Z,15.90
2018-09-03T17:41:58.695Z,16.70
2018-09-03T17:44:26.503Z,15.07
2018-09-03T17:46:57.350Z,15.70
2018-09-03T17:49:25.351Z,14.90
2018-09-03T17:51:53.822Z,16.23
2018-09-03T17:54:23.044Z,16.67
2018-09-03T17:56:54.070Z,16.47
2018-09-03T17:59:23.386Z,16.00
2018-09-03T18:01:53.000Z,16.87
2018-09-03T18:04:23.084Z,17.17
2018-09-03T18:06:51.900Z,16.97
2018-09-03T18:09:20.753Z,16.33
2018-09-03T18:11:48.903Z,16.30
2018-09-03T18:14:16.902Z,16.50
2018-09-03T18:16:44.342Z,15.97
2018-09-03T18:19:11.651Z,17.70
2018-09-03T18:21:39.016Z,16.87
2018-09-03T18:24:06.388Z,17.30
2018-09-03T18:26:33.786Z,16.40
2018-09-03T18:29:01.297Z,16.10
2018-09-03T18:31:28.831Z,16.60
2018-09-03T18:33:56.112Z,16.40
2018-09-03T18:36:23.634Z,15.47
2018-09-03T18:38:50.945Z,16.17
2018-09-03T18:41:18.546Z,18.73
2018-09-03T18:43:46.107Z,16.90
2018-09-03T18:46:13.361Z,17.00
2018-09-03T18:48:41.136Z,19.93
2018-09-03T18:51:08.408Z,21.23
2018-09-03T18:53:35.784Z,22.70
2018-09-03T18:56:03.035Z,22.07
2018-09-03T18:58:30.545Z,20.30
2018-09-03T19:00:57.865Z,21.87
2018-09-03T19:03:25.716Z,19.73
2018-09-03T19:05:53.000Z,23.43
2018-09-03T19:08:20.313Z,19.50
2018-09-03T19:10:47.593Z,18.90
2018-09-03T19:13:14.914Z,19.17
2018-09-03T19:15:42.183Z,19.27
2018-09-03T19:18:09.458Z,19.77
2018-09-03T19:23:21.856Z,23.20
2018-09-03T19:25:50.596Z,21.20
2018-09-03T19:28:18.195Z,22.90
2018-09-03T19:30:45.691Z,20.20
2018-09-03T19:33:13.006Z,18.60
2018-09-03T19:35:40.400Z,20.90
2018-09-03T19:38:08.259Z,20.33
2018-09-03T19:40:35.590Z,18.87
2018-09-03T19:43:03.016Z,18.80
2018-09-03T19:45:30.386Z,18.70
2018-09-03T19:47:57.908Z,19.03
2018-09-03T19:50:25.424Z,19.70
2018-09-03T19:52:52.761Z,20.43
2018-09-03T19:55:22.103Z,18.70
2018-09-03T19:57:49.456Z,19.47
2018-09-03T20:00:16.799Z,17.40
2018-09-03T20:02:44.692Z,19.20
2018-09-03T20:05:12.707Z,17.67
2018-09-03T20:07:40.166Z,19.40
2018-09-03T20:10:07.694Z,19.90
2018-09-03T20:12:35.025Z,20.40
2018-09-03T20:15:02.481Z,19.50
2018-09-03T20:17:29.831Z,17.93
2018-09-03T20:19:58.734Z,18.73
2018-09-03T20:22:27.266Z,20.13
2018-09-03T20:24:55.516Z,20.43
2018-09-03T20:27:24.683Z,21.27
2018-09-03T20:29:52.963Z,21.60
2018-09-03T20:32:23.261Z,22.50
2018-09-03T20:34:51.031Z,23.57
2018-09-03T20:37:18.738Z,21.97
2018-09-03T20:39:49.471Z,20.73
2018-09-03T20:42:19.255Z,20.30
2018-09-03T20:44:48.736Z,22.80
2018-09-03T20:47:18.508Z,21.30
2018-09-03T20:49:47.952Z,21.00
2018-09-03T20:52:17.231Z,19.70
2018-09-03T20:54:45.372Z,20.20
2018-09-03T20:57:16.512Z,20.87
2018-09-03T20:59:46.050Z,20.83
2018-09-03T21:02:15.869Z,19.50
2018-09-03T21:04:44.077Z,19.20
2018-09-03T21:07:14.590Z,20.37
2018-09-03T21:09:44.822Z,19.67
2018-09-03T21:12:13.914Z,18.03
2018-09-03T21:14:44.470Z,18.23
2018-09-03T21:17:14.271Z,20.57
2018-09-03T21:19:44.204Z,18.27
2018-09-03T21:22:15.777Z,17.40
2018-09-03T21:24:43.753Z,17.60
2018-09-03T21:27:15.559Z,18.30
2018-09-03T21:29:47.472Z,17.67
2018-09-03T21:32:17.093Z,17.50
2018-09-03T21:34:47.203Z,18.97
2018-09-03T21:37:15.853Z,19.17
2018-09-03T21:39:46.313Z,19.43
2018-09-03T21:42:16.620Z,18.70
2018-09-03T21:44:46.574Z,17.93
2018-09-03T21:47:17.236Z,18.03
2018-09-03T21:49:47.474Z,17.97
2018-09-03T21:52:15.969Z,17.70
2018-09-03T21:54:44.879Z,18.27
2018-09-03T21:57:15.689Z,18.50
2018-09-03T21:59:43.225Z,16.53
2018-09-03T22:02:11.024Z,17.63
2018-09-03T22:04:40.249Z,18.17
2018-09-03T22:07:08.140Z,18.30
2018-09-03T22:09:36.006Z,17.60
2018-09-03T22:12:03.401Z,18.40
2018-09-03T22:14:31.239Z,17.60
2018-09-03T22:16:59.063Z,17.30
2018-09-03T22:19:26.441Z,19.33
2018-09-03T22:21:54.370Z,18.57
2018-09-03T22:24:22.060Z,19.17
2018-09-03T22:26:49.757Z,18.40
2018-09-03T22:29:17.139Z,18.03
2018-09-03T22:31:44.486Z,17.50
2018-09-03T22:34:12.003Z,17.33
2018-09-03T22:36:39.609Z,18.30
2018-09-03T22:39:07.182Z,17.70
2018-09-03T22:41:34.559Z,17.50
2018-09-03T22:44:02.138Z,17.20
2018-09-03T22:46:29.514Z,17.20
2018-09-03T22:48:56.856Z,17.10
2018-09-03T22:51:24.172Z,16.50
2018-09-03T22:53:51.576Z,17.80
2018-09-03T22:56:19.203Z,17.63
2018-09-03T22:58:47.208Z,17.80
2018-09-03T23:01:14.505Z,18.30
2018-09-03T23:03:41.872Z,18.30
2018-09-03T23:06:09.806Z,17.97
2018-09-03T23:08:37.176Z,17.40
2018-09-03T23:11:04.843Z,16.60
2018-09-03T23:13:32.150Z,17.50
2018-09-03T23:15:59.721Z,18.37
2018-09-03T23:18:27.299Z,18.20
2018-09-03T23:20:54.968Z,19.87
2018-09-03T23:23:22.547Z,17.67
2018-09-03T23:25:49.902Z,19.50
2018-09-03T23:28:17.242Z,18.30
2018-09-03T23:30:44.825Z,18.37
2018-09-03T23:33:12.870Z,19.30
2018-09-03T23:35:40.201Z,18.03
2018-09-03T23:38:07.786Z,18.40
2018-09-03T23:40:35.259Z,18.53
2018-09-03T23:43:02.704Z,18.43
2018-09-03T23:45:30.244Z,18.27
2018-09-03T23:47:57.872Z,17.67
2018-09-03T23:50:25.207Z,19.53
2018-09-03T23:52:52.769Z,18.13
2018-09-03T23:55:20.127Z,19.00
2018-09-03T23:57:47.532Z,16.90
